Aeroporto :
LOGIN :

Iscrizione | Disclaimer

   EN    FR    IT 

 










Sommario :    VFR   VFR Marginale   IFR   IFR Intensivo   IFR Molto Intensivo
Visibilità : 
Base nubi : 
>= 8 km
>= 3000ft
5 / 8 km
1000 / 3000 ft
1500m / 5 km
500 / 1000 ft
800 / 1500m
200 / 500 ft
< 800m
< 200 ft
Simboli :   Temporali  Nebbia  Neve Forte  Precipitazioni Forti  Vento > 20 kt
SIGMETs :   Varie  Temporali  Ghiacco  Turbolenza  Onda orograficha  Ceneri Vulcaniche







- Altitudine del aeroporto : 220 ft
- Codice IATA : CWL
- Carte del aeroporto


EGFF - Cardiff Rhoose

ULTIMO METAR :
  • 152120Z AUTO 16009KT 8000 NCD 07/06 Q1022

METARs OBSOLETI :
  • 152050Z AUTO 14008KT 9999 NCD 08/06 Q1022
  • 152020Z AUTO 13008KT 9999 NCD 08/06 Q1022
  • 151950Z AUTO 18005KT 150V240 9999 NCD 08/06 Q1023
  • 151920Z AUTO 16004KT 120V230 9999 NCD 08/07 Q1023
  • 151850Z AUTO 14008KT 120V180 9999 NCD 09/07 Q1023

TAF TAF EGFF
Valido dal 15 a 18 ore il 16 a 18 ore UTC


151703Z 1518/1618 11006KT CAVOK
PROB30
TEMPO 1518/1522 9000
BECMG 1521/1524 BKN014
TEMPO 1522/1605 4000 RADZ BKN006
BECMG 1603/1606 22010KT SCT020
BECMG 1609/1612 16006KT
BECMG 1609/1612 BKN010
TEMPO 1612/1618 7000 -RADZ BKN006
PROB30
TEMPO 1615/1618 4000 RADZ BKN002
ATIS : +44 1446 729 319
Nessun NOTAM noto per questo aeroporto.
1 SIGMET conosciuto per la FIR London (EGTT) :
 
Forte onda orograficha
EGTT SIGMET 01 VALID 151900/152300 EGRR
EGTT LONDON FIR SEV MTW FCST WI N5500 W00027 - N5429 W00019 - N5339 W00438 - N5500 W00504 - N5500 W00027 FL030/260 STNR NC=



MetMap, La meteo Aeronautica in un colpo d'occhio ! - Copyright ORBIFLY Dicembre 2007 - Disclaimer

ORBIFLY MET'MAP TEAM :

Programmazione e sviluppo : Alexandra Zaïnal
Concezione e sviluppo : Baudouin d'Aumeries
Co-Programmazione e sviluppo : Marc-Olivier Méhu
Supporto tecnico e logistico : Manuel Goepfert
Aiuto per la traduzione : Arnaldo La Scala

Contatto : metmap@orbifly.com




FONTI E CREDITI :

   NOAA